Terminal Aerodrome Forecast
Issued by NWS

Home | Current Version | Previous Version | Text Only | Print | Product List | Glossary On
Versions: 1 2 3 4 5 6 7 8 9 10 11 12 13 14 15 16 17 18 19 20 21
000
FTUS41 KOKX 012349
TAFHPN
TAF
KHPN 012349Z 0200/0224 10008KT 1SM -RA BR BKN004
     FM020200 11005KT 1/2SM FG OVC002
     FM020500 11005KT 1/2SM FG OVC002
     FM021600 VRB05KT 4SM BR OVC004
     FM021800 VRB05KT 6SM BR BKN009
      AMD NOT SKED=

USA.gov is the U.S. government's official web portal to all federal, state and local government web resources and services.